createdAt,value
2018-06-04T00:01:56.278Z,100984.53
2018-06-04T00:06:50.829Z,100994.09
2018-06-04T00:11:45.402Z,100985.72
2018-06-04T00:16:40.035Z,100978.42
2018-06-04T00:21:34.921Z,100978.68
2018-06-04T00:26:29.989Z,100973.55
2018-06-04T00:31:25.215Z,100977.57
2018-06-04T00:36:20.138Z,100976.36
2018-06-04T00:41:14.840Z,100979.91
2018-06-04T00:46:09.611Z,100970.31
2018-06-04T00:51:04.209Z,100966.04
2018-06-04T00:56:15.789Z,100963.02
2018-06-04T01:01:10.550Z,100958.31
2018-06-04T01:06:05.019Z,100948.73
2018-06-04T01:10:59.656Z,100956.80
2018-06-04T01:15:54.373Z,100948.90
2018-06-04T01:20:48.838Z,100943.58
2018-06-04T01:25:45.528Z,100932.05
2018-06-04T01:30:40.115Z,100931.09
2018-06-04T01:35:34.614Z,100934.98
2018-06-04T01:40:29.420Z,100934.54
2018-06-04T01:45:24.113Z,100927.38
2018-06-04T01:50:19.181Z,100927.63
2018-06-04T01:55:13.723Z,100922.98
2018-06-04T02:00:08.381Z,100922.75
2018-06-04T02:05:02.663Z,100916.41
2018-06-04T02:09:57.544Z,100906.22
2018-06-04T02:14:51.742Z,100918.77
2018-06-04T02:19:46.489Z,100916.44
2018-06-04T02:24:41.038Z,100917.91
2018-06-04T02:29:35.493Z,100916.09
2018-06-04T02:34:29.973Z,100918.28
2018-06-04T02:39:24.446Z,100915.34
2018-06-04T02:44:18.917Z,100915.98
2018-06-04T02:49:13.318Z,100918.05
2018-06-04T02:54:07.795Z,100917.82
2018-06-04T02:59:02.286Z,100921.57
2018-06-04T03:03:56.742Z,100916.86
2018-06-04T03:08:51.457Z,100910.05
2018-06-04T03:13:45.918Z,100911.85
2018-06-04T03:18:40.670Z,100910.30
2018-06-04T03:23:35.181Z,100906.75
2018-06-04T03:28:29.884Z,100905.55
2018-06-04T03:33:24.447Z,100905.55
2018-06-04T03:38:18.623Z,100906.28
2018-06-04T03:43:13.066Z,100896.67
2018-06-04T03:48:07.297Z,100902.86
2018-06-04T03:53:01.767Z,100904.20
2018-06-04T03:57:56.749Z,100904.30
2018-06-04T04:02:51.358Z,100901.52
2018-06-04T04:07:45.961Z,100899.88
2018-06-04T04:12:40.439Z,100903.82
2018-06-04T04:17:34.917Z,100894.36
2018-06-04T04:22:29.399Z,100893.44
2018-06-04T04:27:23.649Z,100890.22
2018-06-04T04:32:18.158Z,100892.13
2018-06-04T04:37:12.647Z,100888.39
2018-06-04T04:42:07.330Z,100896.42
2018-06-04T04:47:01.799Z,100894.47
2018-06-04T04:51:56.266Z,100891.70
2018-06-04T04:56:50.703Z,100888.27
2018-06-04T05:01:45.176Z,100892.91
2018-06-04T05:06:39.812Z,100896.73
2018-06-04T05:11:34.459Z,100906.45
2018-06-04T05:16:28.703Z,100900.08
2018-06-04T05:21:23.630Z,100906.38
2018-06-04T05:26:18.378Z,100897.19
2018-06-04T05:31:12.642Z,100898.37
2018-06-04T05:36:07.100Z,100894.39
2018-06-04T05:41:01.561Z,100895.77
2018-06-04T05:45:56.314Z,100888.23
2018-06-04T05:50:51.059Z,100881.23
2018-06-04T05:55:45.850Z,100884.56
2018-06-04T06:00:40.606Z,100874.00
2018-06-04T06:05:35.721Z,100869.45
2018-06-04T06:10:30.472Z,100868.56
2018-06-04T06:15:25.324Z,100870.23
2018-06-04T06:20:20.374Z,100854.06
2018-06-04T06:25:15.287Z,100848.45
2018-06-04T06:30:10.705Z,100850.42
2018-06-04T06:35:05.435Z,100861.70
2018-06-04T06:40:00.175Z,100849.59
2018-06-04T06:44:55.182Z,100843.08
2018-06-04T06:49:50.336Z,100847.29
2018-06-04T06:54:44.874Z,100849.27
2018-06-04T06:59:40.019Z,100853.18
2018-06-04T07:04:34.890Z,100846.26
2018-06-04T07:09:29.438Z,100845.92
2018-06-04T07:14:24.233Z,100842.78
2018-06-04T07:19:18.996Z,100839.67
2018-06-04T07:24:13.875Z,100838.42
2018-06-04T07:29:08.717Z,100839.84
2018-06-04T07:34:03.496Z,100840.16
2018-06-04T07:38:58.303Z,100835.25
2018-06-04T07:43:53.217Z,100833.83
2018-06-04T07:48:48.197Z,100823.42
2018-06-04T07:53:43.113Z,100817.45
2018-06-04T07:58:38.053Z,100812.28
2018-06-04T08:03:32.898Z,100811.13
2018-06-04T08:08:27.661Z,100801.00
2018-06-04T08:13:22.607Z,100792.99
2018-06-04T08:18:17.394Z,100793.69
2018-06-04T08:23:12.141Z,100790.36
2018-06-04T08:28:07.001Z,100789.20
2018-06-04T08:33:01.561Z,100780.48
2018-06-04T08:37:56.550Z,100787.91
2018-06-04T08:42:51.355Z,100787.83
2018-06-04T08:47:46.193Z,100783.91
2018-06-04T08:52:40.905Z,100774.02
2018-06-04T08:57:35.871Z,100767.73
2018-06-04T09:02:30.809Z,100768.05
2018-06-04T09:07:25.312Z,100764.17
2018-06-04T09:12:19.914Z,100770.19
2018-06-04T09:17:15.005Z,100752.48
2018-06-04T09:22:09.746Z,100760.37
2018-06-04T09:27:04.875Z,100748.19
2018-06-04T09:31:59.662Z,100748.48
2018-06-04T09:36:54.382Z,100737.64
2018-06-04T09:41:49.150Z,100742.05
2018-06-04T09:46:43.892Z,100734.83
2018-06-04T09:51:38.630Z,100729.11
2018-06-04T09:56:33.235Z,100716.56
2018-06-04T10:01:27.964Z,100725.05
2018-06-04T10:06:23.129Z,100719.46
2018-06-04T10:11:18.295Z,100711.30
2018-06-04T10:16:13.331Z,100715.40
2018-06-04T10:21:08.224Z,100713.74
2018-06-04T10:26:02.952Z,100720.35
2018-06-04T10:30:58.209Z,100720.27
2018-06-04T10:35:53.040Z,100708.77
2018-06-04T10:40:47.787Z,100706.97
2018-06-04T10:45:42.603Z,100704.63
2018-06-04T10:50:37.382Z,100703.48
2018-06-04T10:55:32.399Z,100703.19
2018-06-04T11:00:27.171Z,100700.08
2018-06-04T11:05:22.238Z,100702.46
2018-06-04T11:10:17.022Z,100693.72
2018-06-04T11:15:12.007Z,100690.57
2018-06-04T11:20:06.732Z,100693.80
2018-06-04T11:25:01.906Z,100681.70
2018-06-04T11:29:57.500Z,100678.20
2018-06-04T11:34:52.886Z,100675.04
2018-06-04T11:39:47.711Z,100674.60
2018-06-04T11:44:43.072Z,100667.99
2018-06-04T11:49:38.567Z,100662.88
2018-06-04T11:54:33.700Z,100663.06
2018-06-04T11:59:28.886Z,100654.30
2018-06-04T12:04:23.538Z,100651.91
2018-06-04T12:09:18.427Z,100646.00
2018-06-04T12:14:13.600Z,100644.64
2018-06-04T12:19:08.762Z,100646.47
2018-06-04T12:24:04.539Z,100643.36
2018-06-04T12:29:00.083Z,100644.97
2018-06-04T12:33:55.153Z,100644.67
2018-06-04T12:38:50.337Z,100630.75
2018-06-04T12:43:45.473Z,100635.41
2018-06-04T12:48:40.905Z,100634.81
2018-06-04T12:53:36.305Z,100646.02
2018-06-04T12:58:31.352Z,100629.00
2018-06-04T13:03:26.062Z,100623.33
2018-06-04T13:08:21.183Z,100616.34
2018-06-04T13:13:17.178Z,100607.73
2018-06-04T13:18:12.713Z,100611.39
2018-06-04T13:23:08.266Z,100605.28
2018-06-04T13:28:03.161Z,100610.00
2018-06-04T13:32:58.171Z,100597.48
2018-06-04T13:37:52.923Z,100597.05
2018-06-04T13:42:47.659Z,100597.69
2018-06-04T13:47:43.163Z,100590.25
2018-06-04T13:52:38.644Z,100586.80
2018-06-04T13:57:33.716Z,100592.83
2018-06-04T14:02:29.056Z,100582.64
2018-06-04T14:07:24.742Z,100576.92
2018-06-04T14:12:20.001Z,100565.63
2018-06-04T14:17:14.555Z,100563.05
2018-06-04T14:22:09.746Z,100566.77
2018-06-04T14:27:06.124Z,100559.83
2018-06-04T14:32:01.828Z,100556.55
2018-06-04T14:36:57.598Z,100553.41
2018-06-04T14:41:52.682Z,100550.05
2018-06-04T14:46:48.008Z,100537.23
2018-06-04T14:51:42.526Z,100545.37
2018-06-04T14:56:37.329Z,100538.56
2018-06-04T15:01:33.167Z,100539.80
2018-06-04T15:06:28.202Z,100530.02
2018-06-04T15:11:23.814Z,100528.14
2018-06-04T15:16:18.634Z,100517.77
2018-06-04T15:21:13.374Z,100512.57
2018-06-04T15:26:08.731Z,100505.33
2018-06-04T15:31:03.338Z,100515.71
2018-06-04T15:35:58.199Z,100502.90
2018-06-04T15:40:53.193Z,100500.37
2018-06-04T15:45:47.727Z,100499.64
2018-06-04T15:50:42.504Z,100491.70
2018-06-04T15:55:36.967Z,100490.80
2018-06-04T16:00:32.113Z,100491.24
2018-06-04T16:05:26.735Z,100493.50
2018-06-04T16:10:21.178Z,100485.52
2018-06-04T16:15:15.894Z,100486.70
2018-06-04T16:20:10.374Z,100484.52
2018-06-04T16:25:04.838Z,100482.23
2018-06-04T16:29:59.344Z,100485.50
2018-06-04T16:34:53.978Z,100473.81
2018-06-04T16:39:48.479Z,100470.20
2018-06-04T16:44:42.985Z,100474.68
2018-06-04T16:49:37.726Z,100475.32
2018-06-04T16:54:32.501Z,100472.50
2018-06-04T16:59:27.912Z,100475.09
2018-06-04T17:04:22.885Z,100481.56
2018-06-04T17:09:17.308Z,100467.48
2018-06-04T17:14:12.191Z,100464.32
2018-06-04T17:19:07.131Z,100465.28
2018-06-04T17:24:02.297Z,100452.39
2018-06-04T17:28:57.069Z,100455.90
2018-06-04T17:33:53.640Z,100469.94
2018-06-04T17:38:47.978Z,100463.43
2018-06-04T17:43:42.711Z,100474.48
2018-06-04T17:48:37.682Z,100482.81
2018-06-04T17:53:32.449Z,100482.17
2018-06-04T17:58:27.116Z,100502.13
2018-06-04T18:03:22.574Z,100499.42
2018-06-04T18:08:17.228Z,100501.77
2018-06-04T18:13:12.421Z,100509.45
2018-06-04T18:18:06.940Z,100506.65
2018-06-04T18:23:02.311Z,100505.84
2018-06-04T18:27:57.376Z,100506.23
2018-06-04T18:32:51.975Z,100512.55
2018-06-04T18:37:46.718Z,100519.38
2018-06-04T18:42:41.275Z,100521.16
2018-06-04T18:47:36.037Z,100524.64
2018-06-04T18:52:30.594Z,100526.01
2018-06-04T18:57:25.247Z,100534.17
2018-06-04T19:02:20.092Z,100537.64
2018-06-04T19:07:14.736Z,100543.62
2018-06-04T19:12:09.520Z,100552.80
2018-06-04T19:17:04.857Z,100558.75
2018-06-04T19:21:59.629Z,100564.01
2018-06-04T19:26:55.629Z,100575.02
2018-06-04T19:31:50.534Z,100578.75
2018-06-04T19:36:46.958Z,100591.95
2018-06-04T19:41:44.128Z,100591.94
2018-06-04T19:46:38.688Z,100597.20
2018-06-04T19:51:33.428Z,100600.59
2018-06-04T19:56:28.064Z,100610.67
2018-06-04T20:01:22.742Z,100615.56
2018-06-04T20:06:17.707Z,100621.64
2018-06-04T20:11:13.757Z,100642.00
2018-06-04T20:16:08.838Z,100646.19
2018-06-04T20:21:05.922Z,100644.16
2018-06-04T20:26:03.020Z,100638.22
2018-06-04T20:30:58.070Z,100647.42
2018-06-04T20:35:53.467Z,100643.67
2018-06-04T20:40:48.191Z,100650.70
2018-06-04T20:45:42.861Z,100660.95
2018-06-04T20:50:43.668Z,100662.23
2018-06-04T20:55:38.870Z,100668.05
2018-06-04T21:00:33.535Z,100674.20
2018-06-04T21:05:29.417Z,100679.64
2018-06-04T21:10:24.856Z,100682.30
2018-06-04T21:15:20.156Z,100684.62
2018-06-04T21:20:15.295Z,100692.95
2018-06-04T21:25:10.368Z,100690.34
2018-06-04T21:30:05.227Z,100695.84
2018-06-04T21:35:00.364Z,100699.44
2018-06-04T21:39:55.406Z,100701.22
2018-06-04T21:44:54.152Z,100704.00
2018-06-04T21:49:50.488Z,100692.20
2018-06-04T21:54:45.647Z,100699.37
2018-06-04T21:59:41.030Z,100708.31
2018-06-04T22:04:36.032Z,100708.92
2018-06-04T22:09:30.628Z,100705.99
2018-06-04T22:14:25.681Z,100702.05
2018-06-04T22:19:20.363Z,100708.36
2018-06-04T22:24:15.292Z,100710.53
2018-06-04T22:29:11.329Z,100710.27
2018-06-04T22:34:06.466Z,100701.10
2018-06-04T22:39:01.424Z,100704.53
2018-06-04T22:43:56.242Z,100701.96
2018-06-04T22:48:50.976Z,100703.83
2018-06-04T22:53:45.801Z,100711.47
2018-06-04T22:58:40.808Z,100704.27
2018-06-04T23:03:35.643Z,100694.75
2018-06-04T23:08:30.850Z,100696.20
2018-06-04T23:13:25.404Z,100700.95
2018-06-04T23:18:19.669Z,100703.03
2018-06-04T23:23:14.288Z,100708.75
2018-06-04T23:28:08.759Z,100699.75
2018-06-04T23:33:04.016Z,100704.46
2018-06-04T23:37:58.843Z,100706.04
2018-06-04T23:42:53.274Z,100704.55
2018-06-04T23:47:47.660Z,100697.82
2018-06-04T23:52:42.182Z,100698.19
2018-06-04T23:57:36.973Z,100691.97
